^^
Your Local Weather - Clay, NY Station Historical Data
 
Daily Summary for August 17, 2018 Units:  Both    English   Metric
« Previous Day
Next Day »
Daily Weekly Monthly Yearly Custom
  Current: High: Low: Average:
Temperature: 76.5 °F /  24.7 °C 85.1 °F /  29.5 °C 68 °F /  20 °C 74.1 °F /  23.4 °C
Dew Point: 72.3 °F /  22.4 °C 75.3 °F /  24.1 °C 65.3 °F /  18.5 °C 69.1 °F /  20.6 °C
Humidity: 87% 93% 65% 85%
Wind Speed: 0mph /  0km/h 7mph /  11.3km/h - 0.9mph /  1.4km/h
Wind Gust: 0mph /  0km/h 11mph /  17.7km/h - -
WindCalm - - SSW
Pressure: 29.81 in /  1009.4 hPa 29.99 in /  1015.5 hPa 29.79 in /  1008.7 hPa -
Precipitation: 0.56 in /  14.22 mm      
Historical Graphs
 
 
Tabular Data for August 17, 2018
Time Temperature Dew Point Pressure Wind Wind Speed Wind Gust Humidity Rainfall Rate (Hourly) solar
00:04 71.4 °F /  21.9 °C 66.7 °F /  19.3 °C 29.99in /  1015.5hPa Calm     85% 0in /  0mm 0.00 W/m2
00:08 71.1 °F /  21.7 °C 66.4 °F /  19.1 °C 29.99in /  1015.5hPa Calm     85% 0in /  0mm 0.00 W/m2
00:14 70.7 °F /  21.5 °C 66.3 °F /  19.1 °C 29.99in /  1015.5hPa Calm     86% 0in /  0mm 0.00 W/m2
00:18 70.5 °F /  21.4 °C 66.4 °F /  19.1 °C 29.98in /  1015.1hPa Calm     87% 0in /  0mm 0.00 W/m2
00:24 70.2 °F /  21.2 °C 66.1 °F /  18.9 °C 29.98in /  1015.1hPa Calm     87% 0in /  0mm 0.00 W/m2
00:28 70.1 °F /  21.2 °C 66.4 °F /  19.1 °C 29.99in /  1015.5hPa Calm     88% 0in /  0mm 0.00 W/m2
00:34 69.9 °F /  21.1 °C 66.2 °F /  19 °C 29.99in /  1015.5hPa Calm     88% 0in /  0mm 0.00 W/m2
00:38 69.8 °F /  21 °C 66.1 °F /  18.9 °C 29.99in /  1015.5hPa Calm     88% 0in /  0mm 0.00 W/m2
00:44 69.6 °F /  20.9 °C 66.2 °F /  19 °C 29.99in /  1015.5hPa Calm     89% 0in /  0mm 0.00 W/m2
00:48 69.6 °F /  20.9 °C 66.2 °F /  19 °C 29.98in /  1015.1hPa Calm     89% 0in /  0mm 0.00 W/m2
00:54 69.4 °F /  20.8 °C 66 °F /  18.9 °C 29.98in /  1015.1hPa Calm     89% 0in /  0mm 0.00 W/m2
00:58 69.4 °F /  20.8 °C 66.3 °F /  19.1 °C 29.98in /  1015.1hPa Calm     90% 0in /  0mm 0.00 W/m2
01:04 69.3 °F /  20.7 °C 66.2 °F /  19 °C 29.98in /  1015.1hPa Calm     90% 0in /  0mm 0.00 W/m2
01:08 69.3 °F /  20.7 °C 66.2 °F /  19 °C 29.98in /  1015.1hPa Calm     90% 0in /  0mm 0.00 W/m2
01:14 69.2 °F /  20.7 °C 66.1 °F /  18.9 °C 29.98in /  1015.1hPa Calm     90% 0in /  0mm 0.00 W/m2
01:18 69.2 °F /  20.7 °C 66.1 °F /  18.9 °C 29.98in /  1015.1hPa Calm     90% 0in /  0mm 0.00 W/m2
01:24 69.3 °F /  20.7 °C 66.2 °F /  19 °C 29.98in /  1015.1hPa Calm     90% 0in /  0mm 0.00 W/m2
01:28 69.4 °F /  20.8 °C 66.7 °F /  19.3 °C 29.98in /  1015.1hPa Calm     91% 0in /  0mm 0.00 W/m2
01:34 69.5 °F /  20.8 °C 66.8 °F /  19.3 °C 29.98in /  1015.1hPa Calm     91% 0in /  0mm 0.00 W/m2
01:38 69.6 °F /  20.9 °C 66.9 °F /  19.4 °C 29.98in /  1015.1hPa Calm     91% 0in /  0mm 0.00 W/m2
01:44 69.6 °F /  20.9 °C 66.9 °F /  19.4 °C 29.98in /  1015.1hPa Calm     91% 0in /  0mm 0.00 W/m2
01:48 69.6 °F /  20.9 °C 66.9 °F /  19.4 °C 29.98in /  1015.1hPa Calm     91% 0in /  0mm 0.00 W/m2
01:54 69.7 °F /  20.9 °C 67 °F /  19.4 °C 29.98in /  1015.1hPa Calm     91% 0in /  0mm 0.00 W/m2
01:58 69.7 °F /  20.9 °C 67 °F /  19.4 °C 29.98in /  1015.1hPa Calm     91% 0in /  0mm 0.00 W/m2
02:04 69.8 °F /  21 °C 67.1 °F /  19.5 °C 29.98in /  1015.1hPa Calm     91% 0in /  0mm 0.00 W/m2
02:08 69.9 °F /  21.1 °C 67.2 °F /  19.6 °C 29.98in /  1015.1hPa Calm     91% 0in /  0mm 0.00 W/m2
02:14 69.8 °F /  21 °C 67.1 °F /  19.5 °C 29.98in /  1015.1hPa Calm     91% 0in /  0mm 0.00 W/m2
02:18 69.9 °F /  21.1 °C 67.2 °F /  19.6 °C 29.98in /  1015.1hPa Calm     91% 0in /  0mm 0.00 W/m2
02:24 69.9 °F /  21.1 °C 67.2 °F /  19.6 °C 29.98in /  1015.1hPa Calm     91% 0in /  0mm 0.00 W/m2
02:28 69.8 °F /  21 °C 67.1 °F /  19.5 °C 29.98in /  1015.1hPa Calm     91% 0in /  0mm 0.00 W/m2
02:34 69.7 °F /  20.9 °C 67 °F /  19.4 °C 29.97in /  1014.8hPa Calm     91% 0in /  0mm 0.00 W/m2
02:38 69.6 °F /  20.9 °C 66.9 °F /  19.4 °C 29.98in /  1015.1hPa Calm     91% 0in /  0mm 0.00 W/m2
02:44 69.5 °F /  20.8 °C 67.1 °F /  19.5 °C 29.98in /  1015.1hPa Calm     92% 0in /  0mm 0.00 W/m2
02:48 69.5 °F /  20.8 °C 67.1 °F /  19.5 °C 29.97in /  1014.8hPa Calm     92% 0in /  0mm 0.00 W/m2
02:54 69.5 °F /  20.8 °C 67.1 °F /  19.5 °C 29.97in /  1014.8hPa Calm     92% 0in /  0mm 0.00 W/m2
02:58 69.5 °F /  20.8 °C 67.1 °F /  19.5 °C 29.97in /  1014.8hPa Calm     92% 0in /  0mm 0.00 W/m2
03:04 69.5 °F /  20.8 °C 67.1 °F /  19.5 °C 29.97in /  1014.8hPa Calm     92% 0in /  0mm 0.00 W/m2
03:08 69.5 °F /  20.8 °C 67.1 °F /  19.5 °C 29.97in /  1014.8hPa Calm     92% 0in /  0mm 0.00 W/m2
03:14 69.5 °F /  20.8 °C 67.1 °F /  19.5 °C 29.97in /  1014.8hPa Calm     92% 0in /  0mm 0.00 W/m2
03:18 69.5 °F /  20.8 °C 67.1 °F /  19.5 °C 29.97in /  1014.8hPa Calm     92% 0in /  0mm 0.00 W/m2
03:24 69.5 °F /  20.8 °C 67.1 °F /  19.5 °C 29.97in /  1014.8hPa Calm     92% 0in /  0mm 0.00 W/m2
03:28 69.6 °F /  20.9 °C 67.2 °F /  19.6 °C 29.97in /  1014.8hPa Calm     92% 0in /  0mm 0.00 W/m2
03:32 69.7 °F /  20.9 °C 67.3 °F /  19.6 °C 29.96in /  1014.4hPa Calm     92% 0in /  0mm 0.00 W/m2
03:38 69.7 °F /  20.9 °C 67.3 °F /  19.6 °C 29.96in /  1014.4hPa Calm     92% 0in /  0mm 0.00 W/m2
03:44 69.7 °F /  20.9 °C 67.3 °F /  19.6 °C 29.96in /  1014.4hPa Calm     92% 0in /  0mm 0.00 W/m2
03:48 69.6 °F /  20.9 °C 67.2 °F /  19.6 °C 29.96in /  1014.4hPa Calm     92% 0in /  0mm 0.00 W/m2
03:52 69.6 °F /  20.9 °C 67.2 °F /  19.6 °C 29.95in /  1014.1hPa Calm     92% 0in /  0mm 0.00 W/m2
03:58 69.6 °F /  20.9 °C 67.2 °F /  19.6 °C 29.95in /  1014.1hPa Calm     92% 0in /  0mm 0.00 W/m2
04:04 69.5 °F /  20.8 °C 67.1 °F /  19.5 °C 29.95in /  1014.1hPa Calm     92% 0in /  0mm 0.00 W/m2
04:08 69.5 °F /  20.8 °C 67.1 °F /  19.5 °C 29.95in /  1014.1hPa Calm     92% 0in /  0mm 0.00 W/m2
04:14 69.5 °F /  20.8 °C 67.1 °F /  19.5 °C 29.95in /  1014.1hPa Calm     92% 0in /  0mm 0.00 W/m2
04:18 69.5 °F /  20.8 °C 67.1 °F /  19.5 °C 29.95in /  1014.1hPa Calm     92% 0in /  0mm 0.00 W/m2
04:24 69.5 °F /  20.8 °C 67.1 °F /  19.5 °C 29.95in /  1014.1hPa Calm     92% 0in /  0mm 0.00 W/m2
04:28 69.4 °F /  20.8 °C 67 °F /  19.4 °C 29.95in /  1014.1hPa Calm     92% 0in /  0mm 0.00 W/m2
04:32 69.4 °F /  20.8 °C 67 °F /  19.4 °C 29.95in /  1014.1hPa Calm     92% 0in /  0mm 0.00 W/m2
04:38 69.4 °F /  20.8 °C 67 °F /  19.4 °C 29.95in /  1014.1hPa Calm     92% 0in /  0mm 0.00 W/m2
04:44 69.3 °F /  20.7 °C 66.9 °F /  19.4 °C 29.95in /  1014.1hPa Calm     92% 0in /  0mm 0.00 W/m2
04:48 69.3 °F /  20.7 °C 66.9 °F /  19.4 °C 29.95in /  1014.1hPa Calm     92% 0in /  0mm 0.00 W/m2
04:54 69.2 °F /  20.7 °C 66.8 °F /  19.3 °C 29.94in /  1013.8hPa Calm     92% 0in /  0mm 0.00 W/m2
04:58 69.2 °F /  20.7 °C 66.8 °F /  19.3 °C 29.94in /  1013.8hPa Calm     92% 0in /  0mm 0.00 W/m2
05:04 69.1 °F /  20.6 °C 66.7 °F /  19.3 °C 29.94in /  1013.8hPa Calm     92% 0in /  0mm 0.00 W/m2
05:08 69 °F /  20.6 °C 66.6 °F /  19.2 °C 29.94in /  1013.8hPa Calm     92% 0in /  0mm 0.00 W/m2
05:14 69 °F /  20.6 °C 66.6 °F /  19.2 °C 29.95in /  1014.1hPa Calm     92% 0in /  0mm 0.00 W/m2
05:18 69 °F /  20.6 °C 66.6 °F /  19.2 °C 29.95in /  1014.1hPa Calm     92% 0in /  0mm 0.00 W/m2
05:24 69 °F /  20.6 °C 66.6 °F /  19.2 °C 29.95in /  1014.1hPa Calm     92% 0in /  0mm 0.00 W/m2
05:28 68.9 °F /  20.5 °C 66.5 °F /  19.2 °C 29.95in /  1014.1hPa Calm     92% 0in /  0mm 0.00 W/m2
05:34 68.9 °F /  20.5 °C 66.5 °F /  19.2 °C 29.95in /  1014.1hPa Calm     92% 0in /  0mm 0.00 W/m2
05:38 68.9 °F /  20.5 °C 66.5 °F /  19.2 °C 29.95in /  1014.1hPa Calm     92% 0in /  0mm 0.00 W/m2
05:44 68.9 °F /  20.5 °C 66.5 °F /  19.2 °C 29.95in /  1014.1hPa Calm     92% 0in /  0mm 0.00 W/m2
05:48 68.9 °F /  20.5 °C 66.5 °F /  19.2 °C 29.95in /  1014.1hPa Calm     92% 0in /  0mm 0.00 W/m2
05:54 69 °F /  20.6 °C 66.6 °F /  19.2 °C 29.95in /  1014.1hPa Calm     92% 0in /  0mm 0.00 W/m2
05:58 69 °F /  20.6 °C 66.6 °F /  19.2 °C 29.95in /  1014.1hPa Calm     92% 0in /  0mm 0.00 W/m2
06:04 69 °F /  20.6 °C 66.6 °F /  19.2 °C 29.95in /  1014.1hPa Calm     92% 0in /  0mm 0.00 W/m2
06:08 69 °F /  20.6 °C 66.6 °F /  19.2 °C 29.95in /  1014.1hPa Calm     92% 0in /  0mm 0.00 W/m2
06:14 69 °F /  20.6 °C 66.6 °F /  19.2 °C 29.95in /  1014.1hPa Calm     92% 0in /  0mm 0.00 W/m2
06:18 69.1 °F /  20.6 °C 66.7 °F /  19.3 °C 29.95in /  1014.1hPa Calm   4mph /  6.4km/h 92% 0in /  0mm 0.00 W/m2
06:24 69.6 °F /  20.9 °C 67.2 °F /  19.6 °C 29.95in /  1014.1hPa SW 1mph /  1.6km/h 4mph /  6.4km/h 92% 0in /  0mm 9.00 W/m2
06:28 70.2 °F /  21.2 °C 67.4 °F /  19.7 °C 29.95in /  1014.1hPa SW 1mph /  1.6km/h 4mph /  6.4km/h 91% 0in /  0mm 14.00 W/m2
06:34 71.2 °F /  21.8 °C 67.8 °F /  19.9 °C 29.96in /  1014.4hPa SSW 1mph /  1.6km/h 3mph /  4.8km/h 89% 0in /  0mm 18.00 W/m2
06:38 72 °F /  22.2 °C 67.6 °F /  19.8 °C 29.96in /  1014.4hPa SW 2mph /  3.2km/h 5mph /  8km/h 86% 0in /  0mm 18.00 W/m2
06:44 73 °F /  22.8 °C 67.2 °F /  19.6 °C 29.97in /  1014.8hPa SW 3mph /  4.8km/h 3mph /  4.8km/h 82% 0in /  0mm 14.00 W/m2
06:48 73.2 °F /  22.9 °C 66.7 °F /  19.3 °C 29.97in /  1014.8hPa South 3mph /  4.8km/h 3mph /  4.8km/h 80% 0in /  0mm 11.00 W/m2
06:54 73.4 °F /  23 °C 66.5 °F /  19.2 °C 29.97in /  1014.8hPa SSW 3mph /  4.8km/h 8mph /  12.9km/h 79% 0in /  0mm 7.00 W/m2
06:58 73.2 °F /  22.9 °C 66.3 °F /  19.1 °C 29.97in /  1014.8hPa SSW 4mph /  6.4km/h 11mph /  17.7km/h 79% 0in /  0mm 7.00 W/m2
07:04 72.5 °F /  22.5 °C 66 °F /  18.9 °C 29.97in /  1014.8hPa SW 5mph /  8km/h 7mph /  11.3km/h 80% 0in /  0mm 7.00 W/m2
07:08 71.8 °F /  22.1 °C 65.7 °F /  18.7 °C 29.97in /  1014.8hPa SW 6mph /  9.7km/h 7mph /  11.3km/h 81% 0.1in /  2.54mm 9.00 W/m2
07:14 71.2 °F /  21.8 °C 65.4 °F /  18.6 °C 29.98in /  1015.1hPa SW 7mph /  11.3km/h 10mph /  16.1km/h 82% 0.08in /  2.03mm 9.00 W/m2
07:18 70.7 °F /  21.5 °C 65.3 °F /  18.5 °C 29.98in /  1015.1hPa South 6mph /  9.7km/h 10mph /  16.1km/h 83% 0.06in /  1.52mm 12.00 W/m2
07:24 70.1 °F /  21.2 °C 65.4 °F /  18.6 °C 29.98in /  1015.1hPa SW 5mph /  8km/h 9mph /  14.5km/h 85% 0.12in /  3.05mm 21.00 W/m2
07:28 69.7 °F /  20.9 °C 65.7 °F /  18.7 °C 29.98in /  1015.1hPa South 5mph /  8km/h 9mph /  14.5km/h 87% 0.1in /  2.54mm 18.00 W/m2
07:34 69.3 °F /  20.7 °C 65.6 °F /  18.7 °C 29.98in /  1015.1hPa South 5mph /  8km/h 5mph /  8km/h 88% 1.34in /  34.04mm 9.00 W/m2
07:38 69 °F /  20.6 °C 65.6 °F /  18.7 °C 29.98in /  1015.1hPa SSW 5mph /  8km/h 7mph /  11.3km/h 89% 1.73in /  43.94mm 0.00 W/m2
07:44 68.6 °F /  20.3 °C 65.5 °F /  18.6 °C 29.97in /  1014.8hPa South 4mph /  6.4km/h 5mph /  8km/h 90% 0.44in /  11.18mm 0.00 W/m2
07:48 68.4 °F /  20.2 °C 65.4 °F /  18.6 °C 29.97in /  1014.8hPa SSE 2mph /  3.2km/h 5mph /  8km/h 90% 0.24in /  6.1mm 0.00 W/m2
07:54 68.3 °F /  20.2 °C 65.6 °F /  18.7 °C 29.97in /  1014.8hPa SW 1mph /  1.6km/h 2mph /  3.2km/h 91% 0.38in /  9.65mm 0.00 W/m2
07:58 68.3 °F /  20.2 °C 65.6 °F /  18.7 °C 29.96in /  1014.4hPa South 1mph /  1.6km/h 4mph /  6.4km/h 91% 0.4in /  10.16mm 5.00 W/m2
08:04 68.2 °F /  20.1 °C 65.5 °F /  18.6 °C 29.96in /  1014.4hPa SE 1mph /  1.6km/h 3mph /  4.8km/h 91% 0.3in /  7.62mm 5.00 W/m2
08:08 68.1 °F /  20.1 °C 65.7 °F /  18.7 °C 29.95in /  1014.1hPa South 1mph /  1.6km/h 3mph /  4.8km/h 92% 0.29in /  7.37mm 9.00 W/m2
08:14 68 °F /  20 °C 65.6 °F /  18.7 °C 29.95in /  1014.1hPa SSE 1mph /  1.6km/h 1mph /  1.6km/h 92% 0.23in /  5.84mm 12.00 W/m2
08:18 68 °F /  20 °C 65.6 °F /  18.7 °C 29.95in /  1014.1hPa SSE 2mph /  3.2km/h 2mph /  3.2km/h 92% 0.17in /  4.32mm 16.00 W/m2
08:24 68 °F /  20 °C 65.6 °F /  18.7 °C 29.95in /  1014.1hPa SSE 1mph /  1.6km/h 2mph /  3.2km/h 92% 0.13in /  3.3mm 16.00 W/m2
08:28 68 °F /  20 °C 65.6 °F /  18.7 °C 29.95in /  1014.1hPa Calm   2mph /  3.2km/h 92% 0.08in /  2.03mm 16.00 W/m2
08:34 68 °F /  20 °C 65.6 °F /  18.7 °C 29.95in /  1014.1hPa Calm   3mph /  4.8km/h 92% 0.08in /  2.03mm 21.00 W/m2
08:38 68 °F /  20 °C 65.6 °F /  18.7 °C 29.95in /  1014.1hPa Calm   3mph /  4.8km/h 92% 0.09in /  2.29mm 19.00 W/m2
08:44 68 °F /  20 °C 65.6 °F /  18.7 °C 29.95in /  1014.1hPa SSE 1mph /  1.6km/h 2mph /  3.2km/h 92% 0.07in /  1.78mm 35.00 W/m2
08:48 68 °F /  20 °C 65.6 °F /  18.7 °C 29.94in /  1013.8hPa SSE 1mph /  1.6km/h 2mph /  3.2km/h 92% 0.07in /  1.78mm 39.00 W/m2
08:54 68.1 °F /  20.1 °C 66 °F /  18.9 °C 29.94in /  1013.8hPa Calm   1mph /  1.6km/h 93% 0.06in /  1.52mm 42.00 W/m2
08:58 68.1 °F /  20.1 °C 66 °F /  18.9 °C 29.94in /  1013.8hPa Calm   1mph /  1.6km/h 93% 0.04in /  1.02mm 33.00 W/m2
09:04 68.2 °F /  20.1 °C 66.1 °F /  18.9 °C 29.94in /  1013.8hPa Calm     93% 0in /  0mm 25.00 W/m2
09:08 68.2 °F /  20.1 °C 66.1 °F /  18.9 °C 29.94in /  1013.8hPa Calm   3mph /  4.8km/h 93% 0in /  0mm 33.00 W/m2
09:14 68.2 °F /  20.1 °C 66.1 °F /  18.9 °C 29.94in /  1013.8hPa Calm   1mph /  1.6km/h 93% 0in /  0mm 37.00 W/m2
09:18 68.3 °F /  20.2 °C 66.2 °F /  19 °C 29.93in /  1013.4hPa Calm   1mph /  1.6km/h 93% 0in /  0mm 44.00 W/m2
09:24 68.3 °F /  20.2 °C 66.2 °F /  19 °C 29.93in /  1013.4hPa Calm     93% 0in /  0mm 37.00 W/m2
09:28 68.4 °F /  20.2 °C 66.3 °F /  19.1 °C 29.93in /  1013.4hPa Calm     93% 0in /  0mm 58.00 W/m2
09:34 68.5 °F /  20.3 °C 66.4 °F /  19.1 °C 29.93in /  1013.4hPa Calm     93% 0in /  0mm 100.00 W/m2
09:38 68.8 °F /  20.4 °C 66.7 °F /  19.3 °C 29.93in /  1013.4hPa Calm     93% 0in /  0mm 81.00 W/m2
09:44 69.1 °F /  20.6 °C 67 °F /  19.4 °C 29.92in /  1013.1hPa Calm     93% 0in /  0mm 100.00 W/m2
09:48 69.3 °F /  20.7 °C 67.2 °F /  19.6 °C 29.92in /  1013.1hPa Calm   1mph /  1.6km/h 93% 0in /  0mm 113.00 W/m2
09:54 69.5 °F /  20.8 °C 67.4 °F /  19.7 °C 29.92in /  1013.1hPa Calm     93% 0in /  0mm 104.00 W/m2
09:58 69.7 °F /  20.9 °C 67.6 °F /  19.8 °C 29.92in /  1013.1hPa Calm   1mph /  1.6km/h 93% 0in /  0mm 156.00 W/m2
10:04 70 °F /  21.1 °C 67.9 °F /  19.9 °C 29.92in /  1013.1hPa Calm     93% 0in /  0mm 169.00 W/m2
10:08 70.3 °F /  21.3 °C 68.2 °F /  20.1 °C 29.92in /  1013.1hPa Calm     93% 0in /  0mm 250.00 W/m2
10:14 70.5 °F /  21.4 °C 68.4 °F /  20.2 °C 29.92in /  1013.1hPa Calm     93% 0in /  0mm 207.00 W/m2
10:18 70.8 °F /  21.6 °C 68.7 °F /  20.4 °C 29.92in /  1013.1hPa Calm     93% 0in /  0mm 262.00 W/m2
10:24 71.3 °F /  21.8 °C 69.2 °F /  20.7 °C 29.92in /  1013.1hPa Calm     93% 0in /  0mm 332.00 W/m2
10:28 71.4 °F /  21.9 °C 69.3 °F /  20.7 °C 29.92in /  1013.1hPa Calm   3mph /  4.8km/h 93% 0in /  0mm 257.00 W/m2
10:34 71.6 °F /  22 °C 69.5 °F /  20.8 °C 29.91in /  1012.8hPa SSE 1mph /  1.6km/h 1mph /  1.6km/h 93% 0in /  0mm 213.00 W/m2
10:38 72 °F /  22.2 °C 69.5 °F /  20.8 °C 29.91in /  1012.8hPa SE 1mph /  1.6km/h 3mph /  4.8km/h 92% 0in /  0mm 218.00 W/m2
10:44 72.4 °F /  22.4 °C 69.9 °F /  21.1 °C 29.91in /  1012.8hPa SSE 1mph /  1.6km/h 3mph /  4.8km/h 92% 0in /  0mm 431.00 W/m2
10:48 72.9 °F /  22.7 °C 70.1 °F /  21.2 °C 29.91in /  1012.8hPa South 1mph /  1.6km/h 3mph /  4.8km/h 91% 0in /  0mm 301.00 W/m2
10:54 73.4 °F /  23 °C 70.3 °F /  21.3 °C 29.91in /  1012.8hPa SSE 1mph /  1.6km/h 4mph /  6.4km/h 90% 0in /  0mm 199.00 W/m2
10:58 73.6 °F /  23.1 °C 70.5 °F /  21.4 °C 29.90in /  1012.4hPa SSE 1mph /  1.6km/h 4mph /  6.4km/h 90% 0in /  0mm 199.00 W/m2
11:04 73.7 °F /  23.2 °C 70.3 °F /  21.3 °C 29.90in /  1012.4hPa SSW 1mph /  1.6km/h 3mph /  4.8km/h 89% 0in /  0mm 195.00 W/m2
11:08 73.8 °F /  23.2 °C 70 °F /  21.1 °C 29.90in /  1012.4hPa SSW 1mph /  1.6km/h 3mph /  4.8km/h 88% 0in /  0mm 218.00 W/m2
11:14 74.1 °F /  23.4 °C 70 °F /  21.1 °C 29.89in /  1012.1hPa SSW 1mph /  1.6km/h 1mph /  1.6km/h 87% 0in /  0mm 283.00 W/m2
11:18 74.3 °F /  23.5 °C 69.8 °F /  21 °C 29.90in /  1012.4hPa SSW 1mph /  1.6km/h 3mph /  4.8km/h 86% 0in /  0mm 302.00 W/m2
11:24 74.9 °F /  23.8 °C 70.4 °F /  21.3 °C 29.89in /  1012.1hPa SW 1mph /  1.6km/h 1mph /  1.6km/h 86% 0in /  0mm 279.00 W/m2
11:28 75.1 °F /  23.9 °C 70.3 °F /  21.3 °C 29.89in /  1012.1hPa SW 1mph /  1.6km/h 1mph /  1.6km/h 85% 0in /  0mm 531.00 W/m2
11:34 76 °F /  24.4 °C 70.8 °F /  21.6 °C 29.89in /  1012.1hPa SSE 1mph /  1.6km/h 1mph /  1.6km/h 84% 0in /  0mm 749.00 W/m2
11:38 76.8 °F /  24.9 °C 71.2 °F /  21.8 °C 29.89in /  1012.1hPa South 1mph /  1.6km/h 5mph /  8km/h 83% 0in /  0mm 773.00 W/m2
11:44 78.1 °F /  25.6 °C 71.4 °F /  21.9 °C 29.89in /  1012.1hPa SSW 1mph /  1.6km/h 5mph /  8km/h 80% 0in /  0mm 686.00 W/m2
11:48 78.6 °F /  25.9 °C 71.9 °F /  22.2 °C 29.89in /  1012.1hPa SE 1mph /  1.6km/h 5mph /  8km/h 80% 0in /  0mm 793.00 W/m2
11:54 79.6 °F /  26.4 °C 71.8 °F /  22.1 °C 29.88in /  1011.7hPa SW 2mph /  3.2km/h 4mph /  6.4km/h 77% 0in /  0mm 949.00 W/m2
11:58 80 °F /  26.7 °C 71.4 °F /  21.9 °C 29.88in /  1011.7hPa SW 2mph /  3.2km/h 4mph /  6.4km/h 75% 0in /  0mm 858.00 W/m2
12:04 80.3 °F /  26.8 °C 71.6 °F /  22 °C 29.88in /  1011.7hPa SW 2mph /  3.2km/h 3mph /  4.8km/h 75% 0in /  0mm 397.00 W/m2
12:08 80.1 °F /  26.7 °C 71.1 °F /  21.7 °C 29.88in /  1011.7hPa SW 2mph /  3.2km/h 6mph /  9.7km/h 74% 0in /  0mm 475.00 W/m2
12:12 80 °F /  26.7 °C 71 °F /  21.7 °C 29.88in /  1011.7hPa SW 3mph /  4.8km/h 4mph /  6.4km/h 74% 0in /  0mm 399.00 W/m2
12:18 80 °F /  26.7 °C 70.6 °F /  21.4 °C 29.88in /  1011.7hPa SW 3mph /  4.8km/h 7mph /  11.3km/h 73% 0in /  0mm 524.00 W/m2
12:24 79.8 °F /  26.6 °C 70.4 °F /  21.3 °C 29.87in /  1011.4hPa WSW 3mph /  4.8km/h 8mph /  12.9km/h 73% 0in /  0mm 587.00 W/m2
12:28 80 °F /  26.7 °C 70.6 °F /  21.4 °C 29.87in /  1011.4hPa WSW 4mph /  6.4km/h 8mph /  12.9km/h 73% 0in /  0mm 441.00 W/m2
12:34 80 °F /  26.7 °C 70.6 °F /  21.4 °C 29.87in /  1011.4hPa SSW 5mph /  8km/h 5mph /  8km/h 73% 0in /  0mm 401.00 W/m2
12:38 80.1 °F /  26.7 °C 70.7 °F /  21.5 °C 29.87in /  1011.4hPa West 4mph /  6.4km/h 5mph /  8km/h 73% 0in /  0mm 399.00 W/m2
12:44 80.3 °F /  26.8 °C 70.9 °F /  21.6 °C 29.87in /  1011.4hPa SSW 3mph /  4.8km/h 8mph /  12.9km/h 73% 0in /  0mm 357.00 W/m2
12:48 80.3 °F /  26.8 °C 70.9 °F /  21.6 °C 29.86in /  1011.1hPa SW 4mph /  6.4km/h 8mph /  12.9km/h 73% 0in /  0mm 381.00 W/m2
12:54 80.6 °F /  27 °C 71.5 °F /  21.9 °C 29.86in /  1011.1hPa SSW 2mph /  3.2km/h 4mph /  6.4km/h 74% 0in /  0mm 411.00 W/m2
12:58 80.7 °F /  27.1 °C 70.8 °F /  21.6 °C 29.86in /  1011.1hPa South 1mph /  1.6km/h 4mph /  6.4km/h 72% 0in /  0mm 364.00 W/m2
13:04 80.6 °F /  27 °C 71.1 °F /  21.7 °C 29.86in /  1011.1hPa South 2mph /  3.2km/h 4mph /  6.4km/h 73% 0in /  0mm 313.00 W/m2
13:08 80.5 °F /  26.9 °C 71 °F /  21.7 °C 29.86in /  1011.1hPa SSW 2mph /  3.2km/h 4mph /  6.4km/h 73% 0in /  0mm 385.00 W/m2
13:14 81.2 °F /  27.3 °C 72.9 °F /  22.7 °C 29.86in /  1011.1hPa SW 1mph /  1.6km/h 2mph /  3.2km/h 76% 0in /  0mm 548.00 W/m2
13:18 82.1 °F /  27.8 °C 72.2 °F /  22.3 °C 29.85in /  1010.7hPa SSW 1mph /  1.6km/h 5mph /  8km/h 72% 0in /  0mm 972.00 W/m2
13:24 81.8 °F /  27.7 °C 72.3 °F /  22.4 °C 29.85in /  1010.7hPa SSE 2mph /  3.2km/h 6mph /  9.7km/h 73% 0in /  0mm 606.00 W/m2
13:28 82.5 °F /  28.1 °C 71.7 °F /  22.1 °C 29.84in /  1010.4hPa South 3mph /  4.8km/h 6mph /  9.7km/h 70% 0in /  0mm 875.00 W/m2
13:34 83 °F /  28.3 °C 71.8 °F /  22.1 °C 29.84in /  1010.4hPa SW 3mph /  4.8km/h 3mph /  4.8km/h 69% 0in /  0mm 566.00 W/m2
13:38 83 °F /  28.3 °C 71.8 °F /  22.1 °C 29.84in /  1010.4hPa South 2mph /  3.2km/h 4mph /  6.4km/h 69% 0in /  0mm 951.00 W/m2
13:44 83.2 °F /  28.4 °C 72.8 °F /  22.7 °C 29.84in /  1010.4hPa NW 2mph /  3.2km/h 3mph /  4.8km/h 71% 0in /  0mm 930.00 W/m2
13:48 83.7 °F /  28.7 °C 72.9 °F /  22.7 °C 29.84in /  1010.4hPa SW 2mph /  3.2km/h 3mph /  4.8km/h 70% 0in /  0mm 645.00 W/m2
13:54 82.9 °F /  28.3 °C 71.7 °F /  22.1 °C 29.84in /  1010.4hPa SW 2mph /  3.2km/h 2mph /  3.2km/h 69% 0in /  0mm 278.00 W/m2
13:58 82.4 °F /  28 °C 71.2 °F /  21.8 °C 29.84in /  1010.4hPa SSW 3mph /  4.8km/h 6mph /  9.7km/h 69% 0in /  0mm 279.00 W/m2
14:04 82.2 °F /  27.9 °C 71.4 °F /  21.9 °C 29.84in /  1010.4hPa SW 3mph /  4.8km/h 3mph /  4.8km/h 70% 0in /  0mm 341.00 W/m2
14:08 82.2 °F /  27.9 °C 71.4 °F /  21.9 °C 29.83in /  1010hPa SW 2mph /  3.2km/h 3mph /  4.8km/h 70% 0in /  0mm 341.00 W/m2
14:14 82.7 °F /  28.2 °C 71.9 °F /  22.2 °C 29.83in /  1010hPa WSW 1mph /  1.6km/h 3mph /  4.8km/h 70% 0in /  0mm 320.00 W/m2
14:18 83 °F /  28.3 °C 72.2 °F /  22.3 °C 29.83in /  1010hPa SW 1mph /  1.6km/h 3mph /  4.8km/h 70% 0in /  0mm 455.00 W/m2
14:24 83.4 °F /  28.6 °C 72.2 °F /  22.3 °C 29.83in /  1010hPa SW 2mph /  3.2km/h 3mph /  4.8km/h 69% 0in /  0mm 371.00 W/m2
14:28 84.3 °F /  29.1 °C 72.1 °F /  22.3 °C 29.83in /  1010hPa WSW 2mph /  3.2km/h 5mph /  8km/h 67% 0in /  0mm 388.00 W/m2
14:34 84.6 °F /  29.2 °C 72.4 °F /  22.4 °C 29.83in /  1010hPa SW 3mph /  4.8km/h 6mph /  9.7km/h 67% 0in /  0mm 954.00 W/m2
14:38 85.1 °F /  29.5 °C 72 °F /  22.2 °C 29.83in /  1010hPa SSE 4mph /  6.4km/h 6mph /  9.7km/h 65% 0in /  0mm 290.00 W/m2
14:44 84.4 °F /  29.1 °C 71.8 °F /  22.1 °C 29.83in /  1010hPa SW 2mph /  3.2km/h 3mph /  4.8km/h 66% 0in /  0mm 91.00 W/m2
14:48 83.7 °F /  28.7 °C 71.6 °F /  22 °C 29.82in /  1009.7hPa SSW 2mph /  3.2km/h 5mph /  8km/h 67% 0in /  0mm 100.00 W/m2
14:54 82.8 °F /  28.2 °C 70.7 °F /  21.5 °C 29.82in /  1009.7hPa SSW 4mph /  6.4km/h 8mph /  12.9km/h 67% 0in /  0mm 204.00 W/m2
14:58 82.7 °F /  28.2 °C 71.5 °F /  21.9 °C 29.82in /  1009.7hPa WSW 3mph /  4.8km/h 8mph /  12.9km/h 69% 0in /  0mm 155.00 W/m2
15:04 82.6 °F /  28.1 °C 71.4 °F /  21.9 °C 29.81in /  1009.4hPa WSW 1mph /  1.6km/h 4mph /  6.4km/h 69% 0in /  0mm 158.00 W/m2
15:08 82.7 °F /  28.2 °C 71.9 °F /  22.2 °C 29.81in /  1009.4hPa SW 1mph /  1.6km/h 4mph /  6.4km/h 70% 0in /  0mm 288.00 W/m2
15:14 82.8 °F /  28.2 °C 72 °F /  22.2 °C 29.82in /  1009.7hPa SSW 1mph /  1.6km/h 1mph /  1.6km/h 70% 0in /  0mm 179.00 W/m2
15:18 82.6 °F /  28.1 °C 71.4 °F /  21.9 °C 29.81in /  1009.4hPa WSW 3mph /  4.8km/h 3mph /  4.8km/h 69% 0in /  0mm 156.00 W/m2
15:24 82.4 °F /  28 °C 71.6 °F /  22 °C 29.81in /  1009.4hPa SW 3mph /  4.8km/h 3mph /  4.8km/h 70% 0in /  0mm 195.00 W/m2
15:28 82.4 °F /  28 °C 71.6 °F /  22 °C 29.81in /  1009.4hPa WSW 1mph /  1.6km/h 3mph /  4.8km/h 70% 0in /  0mm 192.00 W/m2
15:34 82.2 °F /  27.9 °C 71.4 °F /  21.9 °C 29.81in /  1009.4hPa WSW 1mph /  1.6km/h 5mph /  8km/h 70% 0in /  0mm 134.00 W/m2
15:38 82 °F /  27.8 °C 72.1 °F /  22.3 °C 29.81in /  1009.4hPa West 2mph /  3.2km/h 5mph /  8km/h 72% 0in /  0mm 156.00 W/m2
15:44 81.3 °F /  27.4 °C 72.2 °F /  22.3 °C 29.81in /  1009.4hPa SW 2mph /  3.2km/h 3mph /  4.8km/h 74% 0in /  0mm 113.00 W/m2
15:48 81 °F /  27.2 °C 72.7 °F /  22.6 °C 29.81in /  1009.4hPa SW 1mph /  1.6km/h 3mph /  4.8km/h 76% 0in /  0mm 56.00 W/m2
15:54 80.1 °F /  26.7 °C 73 °F /  22.8 °C 29.82in /  1009.7hPa West 2mph /  3.2km/h 5mph /  8km/h 79% 0.44in /  11.18mm 151.00 W/m2
15:58 79 °F /  26.1 °C 72.7 °F /  22.6 °C 29.82in /  1009.7hPa SW 2mph /  3.2km/h 5mph /  8km/h 81% 0.18in /  4.57mm 236.00 W/m2
16:04 78.4 °F /  25.8 °C 73.2 °F /  22.9 °C 29.81in /  1009.4hPa SSE 1mph /  1.6km/h 4mph /  6.4km/h 84% 0.09in /  2.29mm 304.00 W/m2
16:08 78 °F /  25.6 °C 72.8 °F /  22.7 °C 29.81in /  1009.4hPa SSW 1mph /  1.6km/h 4mph /  6.4km/h 84% 0.05in /  1.27mm 274.00 W/m2
16:14 78 °F /  25.6 °C 72.8 °F /  22.7 °C 29.80in /  1009hPa Calm   1mph /  1.6km/h 84% 0in /  0mm 211.00 W/m2
16:18 78 °F /  25.6 °C 73.1 °F /  22.8 °C 29.80in /  1009hPa Calm   1mph /  1.6km/h 85% 0in /  0mm 227.00 W/m2
16:24 78.1 °F /  25.6 °C 73.2 °F /  22.9 °C 29.80in /  1009hPa Calm     85% 0in /  0mm 274.00 W/m2
16:28 78.6 °F /  25.9 °C 73.7 °F /  23.2 °C 29.80in /  1009hPa Calm   1mph /  1.6km/h 85% 0in /  0mm 352.00 W/m2
16:34 79.6 °F /  26.4 °C 74.3 °F /  23.5 °C 29.79in /  1008.7hPa SSW 1mph /  1.6km/h 1mph /  1.6km/h 84% 0in /  0mm 357.00 W/m2
16:38 79.7 °F /  26.5 °C 74.1 °F /  23.4 °C 29.79in /  1008.7hPa SW 1mph /  1.6km/h 1mph /  1.6km/h 83% 0in /  0mm 357.00 W/m2
16:44 80.6 °F /  27 °C 75.3 °F /  24.1 °C 29.79in /  1008.7hPa WSW 2mph /  3.2km/h 2mph /  3.2km/h 84% 0in /  0mm 564.00 W/m2
16:48 80.8 °F /  27.1 °C 74.4 °F /  23.6 °C 29.79in /  1008.7hPa WSW 1mph /  1.6km/h 2mph /  3.2km/h 81% 0in /  0mm 185.00 W/m2
16:54 80.5 °F /  26.9 °C 74.1 °F /  23.4 °C 29.80in /  1009hPa Calm   1mph /  1.6km/h 81% 0in /  0mm 160.00 W/m2
16:58 80.5 °F /  26.9 °C 74.5 °F /  23.6 °C 29.80in /  1009hPa Calm   2mph /  3.2km/h 82% 0in /  0mm 153.00 W/m2
17:04 79.9 °F /  26.6 °C 73.2 °F /  22.9 °C 29.81in /  1009.4hPa SSW 1mph /  1.6km/h 1mph /  1.6km/h 80% 0in /  0mm 105.00 W/m2
17:08 79.5 °F /  26.4 °C 72.8 °F /  22.7 °C 29.81in /  1009.4hPa WSW 1mph /  1.6km/h 1mph /  1.6km/h 80% 0in /  0mm 58.00 W/m2
17:14 79.2 °F /  26.2 °C 72.9 °F /  22.7 °C 29.81in /  1009.4hPa SW 1mph /  1.6km/h 1mph /  1.6km/h 81% 0in /  0mm 74.00 W/m2
17:18 79 °F /  26.1 °C 72.7 °F /  22.6 °C 29.81in /  1009.4hPa WSW 1mph /  1.6km/h 1mph /  1.6km/h 81% 0in /  0mm 95.00 W/m2
17:24 79 °F /  26.1 °C 73 °F /  22.8 °C 29.81in /  1009.4hPa Calm   1mph /  1.6km/h 82% 0in /  0mm 109.00 W/m2
17:28 79 °F /  26.1 °C 73.4 °F /  23 °C 29.81in /  1009.4hPa Calm   1mph /  1.6km/h 83% 0in /  0mm 113.00 W/m2
17:34 78.9 °F /  26.1 °C 73.3 °F /  22.9 °C 29.80in /  1009hPa Calm     83% 0in /  0mm 111.00 W/m2
17:38 78.9 °F /  26.1 °C 73.3 °F /  22.9 °C 29.80in /  1009hPa Calm     83% 0in /  0mm 97.00 W/m2
17:44 78.9 °F /  26.1 °C 73.3 °F /  22.9 °C 29.80in /  1009hPa Calm     83% 0in /  0mm 95.00 W/m2
17:48 79 °F /  26.1 °C 73.4 °F /  23 °C 29.80in /  1009hPa Calm     83% 0in /  0mm 114.00 W/m2
17:54 78.9 °F /  26.1 °C 73.3 °F /  22.9 °C 29.80in /  1009hPa Calm     83% 0in /  0mm 125.00 W/m2
17:58 78.9 °F /  26.1 °C 73.3 °F /  22.9 °C 29.80in /  1009hPa Calm     83% 0in /  0mm 120.00 W/m2
18:04 79 °F /  26.1 °C 73.4 °F /  23 °C 29.80in /  1009hPa Calm     83% 0in /  0mm 97.00 W/m2
18:08 79.1 °F /  26.2 °C 73.8 °F /  23.2 °C 29.80in /  1009hPa Calm     84% 0in /  0mm 79.00 W/m2
18:14 79 °F /  26.1 °C 73.7 °F /  23.2 °C 29.80in /  1009hPa Calm     84% 0in /  0mm 46.00 W/m2
18:18 78.9 °F /  26.1 °C 73.7 °F /  23.2 °C 29.81in /  1009.4hPa Calm     84% 0in /  0mm 35.00 W/m2
18:24 78.5 °F /  25.8 °C 73.3 °F /  22.9 °C 29.80in /  1009hPa Calm   5mph /  8km/h 84% 0in /  0mm 37.00 W/m2
18:28 78.1 °F /  25.6 °C 72.9 °F /  22.7 °C 29.81in /  1009.4hPa Calm   5mph /  8km/h 84% 0in /  0mm 47.00 W/m2
18:34 77.8 °F /  25.4 °C 72.6 °F /  22.6 °C 29.81in /  1009.4hPa Calm     84% 0in /  0mm 44.00 W/m2
18:38 77.6 °F /  25.3 °C 72.7 °F /  22.6 °C 29.81in /  1009.4hPa Calm     85% 0in /  0mm 42.00 W/m2
18:44 77.4 °F /  25.2 °C 72.9 °F /  22.7 °C 29.80in /  1009hPa Calm     86% 0in /  0mm 51.00 W/m2
18:48 77.3 °F /  25.2 °C 72.8 °F /  22.7 °C 29.81in /  1009.4hPa Calm     86% 0in /  0mm 58.00 W/m2
18:54 77.1 °F /  25.1 °C 72.6 °F /  22.6 °C 29.81in /  1009.4hPa Calm     86% 0in /  0mm 46.00 W/m2
18:58 77.1 °F /  25.1 °C 72.9 °F /  22.7 °C 29.81in /  1009.4hPa Calm     87% 0in /  0mm 39.00 W/m2
19:04 76.8 °F /  24.9 °C 72.3 °F /  22.4 °C 29.81in /  1009.4hPa Calm     86% 0in /  0mm 19.00 W/m2
19:08 76.7 °F /  24.8 °C 72.2 °F /  22.3 °C 29.82in /  1009.7hPa Calm   1mph /  1.6km/h 86% 0in /  0mm 12.00 W/m2
19:14 76.6 °F /  24.8 °C 72.1 °F /  22.3 °C 29.81in /  1009.4hPa Calm     86% 0in /  0mm 9.00 W/m2
19:18 76.5 °F /  24.7 °C 72.3 °F /  22.4 °C 29.81in /  1009.4hPa Calm     87% 0in /  0mm 11.00 W/m2
Country Meadow, Clay, NY, USA
Compliments of Weather Underground - 2 mb